aviador You're here:

KMFD Decoded Metar

MANSFIELD in OH, USA
Report Time2018-07-22 15:52:00
UTC Time2018-07-22 16:13:06
Flight Rules mvfr MVFR
Wind020° at 08 kt
W.Decomp.*RWY 05: 7.3 kt HW 3.3 kt LCW
RWY 32: 3.3 kt HW 7.3 kt RCW
W.Rank020° ranks 22
Current wind is above 020° avg. (6.6)
Visibility9999 m
Phenomena:N/A
Clouds:Overcast 020 Hf
Expected CloudBase > 2,000 ft AGL from Temp-Dew spread
Ceiling2,000 ft
Temp22°C (ISA +10)
Dew Point17°C (73% RH)
AAT21.5°C
QNH1008 hPa
Density Alt2,841 ft
Elevation1,296 ft
Report Wrong Elevation
Raw Report
KMFD 221552Z 02008KT 10SM OVC020 22/17 A2978 RMK AO2 SLP077
T02170167=

Extra information for KMFD:More info

Metar Taf Metar & Taf Last 4 Metars F.Rules Stats Wind Profile Meteogram Temp Stats Airport Information Weather charts Add Link Nearby VenuesMetar ALERT Operation Metar Decoded Social comments

AIRNAV info for KMFD